Lincoln, Nebraska
Current Conditions -  °F | °C
As of 10:54 AM on Sunday 21 Dec 2014 (Local Time) from KLNK Reporting Station
Haze Haze  
Wind Chill: 31°   Ceiling: 500
Heat Index: 40°   Visibility: 5mi
Dew Point: 37°   Wind: 18mph
Humidity: 89%   Direction: 190°S
Pressure: 29.85"   Gusts: 26mph
Location:  40.81°N, 96.71°W
Report Text: KLNK 211654Z 19016G23KT 5SM BR OVC005 04/03 A2985 RMK AO2 SLP115 T00440028
Loading
Personal Weather Stations






























Interactive Weather Map New forecast layout! Learn more

10-Day Weather Forecast

Advertisements
Track Severe Weather on mobile